createdAt,value
2017-10-23T00:00:12.697Z,70.08
2017-10-23T00:02:39.494Z,70.24
2017-10-23T00:05:06.275Z,70.80
2017-10-23T00:07:33.061Z,70.70
2017-10-23T00:09:59.890Z,71.01
2017-10-23T00:12:29.234Z,71.24
2017-10-23T00:14:56.911Z,70.98
2017-10-23T00:17:23.749Z,70.64
2017-10-23T00:19:51.386Z,70.75
2017-10-23T00:22:18.193Z,70.62
2017-10-23T00:24:45.009Z,71.01
2017-10-23T00:27:11.831Z,71.60
2017-10-23T00:29:38.662Z,71.80
2017-10-23T00:32:05.539Z,71.86
2017-10-23T00:34:34.223Z,71.57
2017-10-23T00:37:01.029Z,71.46
2017-10-23T00:39:27.838Z,71.48
2017-10-23T00:41:57.093Z,71.01
2017-10-23T00:44:24.056Z,70.81
2017-10-23T00:46:50.862Z,70.59
2017-10-23T00:49:17.648Z,70.74
2017-10-23T00:51:44.429Z,70.55
2017-10-23T00:54:11.244Z,70.66
2017-10-23T00:56:38.176Z,70.46
2017-10-23T00:59:05.107Z,69.74
2017-10-23T01:01:32.007Z,69.90
2017-10-23T01:03:58.831Z,69.46
2017-10-23T01:06:25.618Z,69.71
2017-10-23T01:08:52.436Z,69.89
2017-10-23T01:11:19.243Z,70.40
2017-10-23T01:13:46.045Z,70.17
2017-10-23T01:16:12.881Z,69.75
2017-10-23T01:18:45.826Z,70.72
2017-10-23T01:21:12.641Z,70.43
2017-10-23T01:23:39.533Z,70.22
2017-10-23T01:26:06.409Z,70.38
2017-10-23T01:28:33.330Z,70.42
2017-10-23T01:31:00.229Z,71.59
2017-10-23T01:33:27.445Z,71.41
2017-10-23T01:35:54.233Z,70.57
2017-10-23T01:38:21.134Z,71.17
2017-10-23T01:40:48.040Z,70.06
2017-10-23T01:43:14.866Z,70.37
2017-10-23T01:45:41.770Z,70.03
2017-10-23T01:48:08.734Z,68.92
2017-10-23T01:50:35.563Z,68.35
2017-10-23T01:53:03.223Z,68.42
2017-10-23T01:55:30.115Z,69.07
2017-10-23T01:57:56.914Z,68.87
2017-10-23T02:00:23.759Z,67.27
2017-10-23T02:02:55.113Z,67.32
2017-10-23T02:05:21.922Z,67.66
2017-10-23T02:07:48.804Z,68.46
2017-10-23T02:10:18.304Z,69.17
2017-10-23T02:12:45.143Z,69.69
2017-10-23T02:15:12.024Z,70.19
2017-10-23T02:17:39.761Z,71.06
2017-10-23T02:20:06.579Z,71.31
2017-10-23T02:22:33.373Z,72.52
2017-10-23T02:25:00.338Z,73.62
2017-10-23T02:27:27.162Z,73.49
2017-10-23T02:29:53.962Z,73.59
2017-10-23T02:34:52.207Z,74.18
2017-10-23T02:37:19.037Z,74.26
2017-10-23T02:39:45.862Z,73.59
2017-10-23T02:42:12.666Z,73.50
2017-10-23T02:44:39.461Z,72.95
2017-10-23T02:47:07.186Z,73.36
2017-10-23T02:49:34.005Z,72.59
2017-10-23T02:52:00.855Z,72.22
2017-10-23T02:54:28.659Z,71.20
2017-10-23T02:56:55.461Z,71.27
2017-10-23T02:59:22.257Z,71.08
2017-10-23T03:01:49.091Z,71.44
2017-10-23T03:04:15.940Z,71.55
2017-10-23T03:06:43.750Z,70.44
2017-10-23T03:09:13.200Z,70.02
2017-10-23T03:11:40.124Z,69.38
2017-10-23T03:14:07.088Z,70.24
2017-10-23T03:16:34.026Z,69.80
2017-10-23T03:19:00.903Z,69.55
2017-10-23T03:21:27.796Z,69.91
2017-10-23T03:23:57.309Z,71.02
2017-10-23T03:26:24.238Z,70.85
2017-10-23T03:28:51.203Z,70.61
2017-10-23T03:31:18.477Z,70.03
2017-10-23T03:33:45.447Z,69.44
2017-10-23T03:36:12.712Z,68.89
2017-10-23T03:38:40.541Z,69.19
2017-10-23T03:41:07.434Z,71.08
2017-10-23T03:43:42.047Z,71.80
2017-10-23T03:46:09.047Z,71.58
2017-10-23T03:48:36.060Z,71.42
2017-10-23T03:51:05.443Z,71.51
2017-10-23T03:53:32.369Z,72.36
2017-10-23T03:55:59.333Z,72.65
2017-10-23T03:58:26.621Z,72.44
2017-10-23T04:00:53.666Z,72.25
2017-10-23T04:03:20.612Z,72.29
2017-10-23T04:05:47.678Z,72.99
2017-10-23T04:08:14.763Z,73.24
2017-10-23T04:10:41.751Z,73.33
2017-10-23T04:13:08.821Z,72.76
2017-10-23T04:15:35.721Z,72.86
2017-10-23T04:18:02.740Z,72.68
2017-10-23T04:20:30.520Z,72.94
2017-10-23T04:22:57.533Z,72.97
2017-10-23T04:25:24.612Z,73.35
2017-10-23T04:27:51.926Z,73.38
2017-10-23T04:30:18.854Z,73.35
2017-10-23T04:32:45.725Z,72.75
2017-10-23T04:35:12.601Z,73.08
2017-10-23T04:37:39.435Z,73.51
2017-10-23T04:40:06.260Z,73.58
2017-10-23T04:42:35.659Z,73.40
2017-10-23T04:45:02.549Z,72.84
2017-10-23T04:47:29.404Z,72.80
2017-10-23T04:49:56.361Z,73.10
2017-10-23T04:52:23.295Z,72.61
2017-10-23T04:54:51.266Z,71.90
2017-10-23T04:57:22.092Z,72.51
2017-10-23T04:59:48.893Z,72.36
2017-10-23T05:02:15.713Z,72.05
2017-10-23T05:04:43.688Z,72.30
2017-10-23T05:07:10.614Z,72.30
2017-10-23T05:09:37.558Z,72.12
2017-10-23T05:12:08.043Z,72.20
2017-10-23T05:14:34.988Z,72.45
2017-10-23T05:17:01.869Z,71.94
2017-10-23T05:19:29.844Z,71.64
2017-10-23T05:21:56.743Z,71.57
2017-10-23T05:24:23.621Z,72.70
2017-10-23T05:26:51.329Z,71.56
2017-10-23T05:29:18.362Z,72.28
2017-10-23T05:31:45.233Z,72.26
2017-10-23T05:34:15.577Z,71.90
2017-10-23T05:36:42.472Z,71.85
2017-10-23T05:39:09.371Z,71.96
2017-10-23T05:41:36.337Z,71.11
2017-10-23T05:44:03.504Z,71.06
2017-10-23T05:46:30.362Z,70.71
2017-10-23T05:48:58.467Z,70.31
2017-10-23T05:51:25.321Z,69.93
2017-10-23T05:53:52.160Z,70.62
2017-10-23T05:56:23.799Z,71.06
2017-10-23T05:58:50.627Z,71.22
2017-10-23T06:01:17.475Z,71.13
2017-10-23T06:03:45.115Z,71.44
2017-10-23T06:06:12.026Z,71.00
2017-10-23T06:08:38.841Z,70.56
2017-10-23T06:11:07.470Z,69.84
2017-10-23T06:13:34.454Z,69.30
2017-10-23T06:16:01.324Z,68.74
2017-10-23T06:18:28.574Z,68.58
2017-10-23T06:20:55.546Z,70.35
2017-10-23T06:23:22.513Z,70.28
2017-10-23T06:25:51.360Z,69.85
2017-10-23T06:28:18.319Z,69.92
2017-10-23T06:30:45.229Z,70.81
2017-10-23T06:33:12.264Z,70.75
2017-10-23T06:35:39.195Z,70.06
2017-10-23T06:38:06.102Z,69.80
2017-10-23T06:40:33.053Z,69.32
2017-10-23T06:43:03.056Z,69.00
2017-10-23T06:45:29.939Z,69.18
2017-10-23T06:47:56.931Z,69.85
2017-10-23T06:50:23.866Z,70.38
2017-10-23T06:52:50.743Z,69.36
2017-10-23T06:55:17.681Z,69.00
2017-10-23T06:57:47.838Z,68.05
2017-10-23T07:00:14.762Z,66.58
2017-10-23T07:02:41.742Z,66.00
2017-10-23T07:05:08.725Z,65.26
2017-10-23T07:07:35.638Z,65.87
2017-10-23T07:10:02.661Z,65.85
2017-10-23T07:12:29.598Z,66.00
2017-10-23T07:14:56.502Z,65.69
2017-10-23T07:17:23.446Z,66.34
2017-10-23T07:19:50.361Z,65.33
2017-10-23T07:22:18.142Z,65.84
2017-10-23T07:24:45.075Z,66.79
2017-10-23T07:27:11.937Z,67.40
2017-10-23T07:29:38.820Z,66.16
2017-10-23T07:32:05.715Z,67.62
2017-10-23T07:34:32.539Z,67.58
2017-10-23T15:23:28.467Z,74.17
2017-10-23T15:26:04.453Z,75.18
2017-10-23T15:31:38.280Z,74.89
2017-10-23T15:34:13.650Z,75.39
2017-10-23T15:36:48.742Z,75.55
2017-10-23T15:39:28.519Z,75.62
2017-10-23T15:42:03.269Z,76.12
2017-10-23T15:44:39.994Z,76.29
2017-10-23T15:47:14.872Z,76.15
2017-10-23T15:49:50.488Z,76.53
2017-10-23T15:52:27.279Z,76.37
2017-10-23T15:55:03.944Z,76.38
2017-10-23T15:57:38.867Z,75.91
2017-10-23T16:00:14.587Z,75.72
2017-10-23T16:02:51.552Z,75.24
2017-10-23T16:05:30.239Z,75.38
2017-10-23T16:08:06.080Z,75.01
2017-10-23T16:10:44.200Z,75.18
2017-10-23T16:13:21.516Z,76.02
2017-10-23T16:15:57.215Z,75.96
2017-10-23T16:18:33.318Z,76.02
2017-10-23T16:21:09.844Z,76.54
2017-10-23T16:23:45.146Z,76.47
2017-10-23T16:26:23.796Z,76.41
2017-10-23T16:28:58.696Z,76.63
2017-10-23T16:31:33.371Z,76.88
2017-10-23T16:34:07.930Z,76.27
2017-10-23T16:36:44.246Z,76.11
2017-10-23T16:39:19.466Z,76.42
2017-10-23T16:41:56.600Z,76.29
2017-10-23T16:44:31.625Z,77.04
2017-10-23T16:47:06.759Z,76.60
2017-10-23T16:49:42.066Z,76.56
2017-10-23T16:52:17.614Z,76.44
2017-10-23T16:54:53.364Z,76.73
2017-10-23T16:57:29.146Z,77.04
2017-10-23T17:00:04.186Z,76.92
2017-10-23T17:02:39.402Z,77.05
2017-10-23T17:05:06.215Z,77.00
2017-10-23T17:07:45.874Z,77.05
2017-10-23T17:10:21.241Z,77.20
2017-10-23T17:12:57.784Z,76.77
2017-10-23T17:15:32.803Z,77.10
2017-10-23T17:18:08.495Z,78.62
2017-10-23T17:20:45.166Z,78.23
2017-10-23T17:23:12.116Z,78.26
2017-10-23T17:25:47.075Z,77.85
2017-10-23T17:28:24.065Z,78.09
2017-10-23T17:30:59.390Z,78.11
2017-10-23T17:33:36.044Z,78.13
2017-10-23T17:36:10.641Z,78.16
2017-10-23T17:38:45.404Z,77.87
2017-10-23T17:41:22.662Z,77.93
2017-10-23T17:43:57.215Z,77.22
2017-10-23T17:46:33.677Z,77.11
2017-10-23T17:49:11.620Z,77.74
2017-10-23T17:51:46.603Z,77.44
2017-10-23T17:54:22.937Z,77.21
2017-10-23T17:56:57.957Z,77.17
2017-10-23T17:59:35.324Z,77.03
2017-10-23T18:02:10.253Z,77.87
2017-10-23T18:04:47.426Z,77.18
2017-10-23T18:07:22.767Z,76.89
2017-10-23T18:09:58.250Z,76.88
2017-10-23T18:12:32.825Z,77.25
2017-10-23T18:15:09.084Z,78.16
2017-10-23T18:17:44.007Z,77.70
2017-10-23T18:20:18.707Z,77.43
2017-10-23T18:22:53.369Z,77.43
2017-10-23T18:25:29.989Z,77.60
2017-10-23T18:28:04.464Z,77.74
2017-10-23T18:30:41.345Z,77.98
2017-10-23T18:33:20.154Z,78.57
2017-10-23T18:35:47.160Z,78.77
2017-10-23T18:38:25.178Z,78.23
2017-10-23T18:41:02.238Z,77.83
2017-10-23T18:43:37.549Z,77.75
2017-10-23T18:46:05.308Z,78.51
2017-10-23T18:48:32.088Z,78.46
2017-10-23T18:51:10.504Z,78.93
2017-10-23T18:53:44.988Z,78.71
2017-10-23T18:56:21.122Z,78.58
2017-10-23T18:59:01.108Z,78.71
2017-10-23T19:01:41.746Z,78.80
2017-10-23T19:04:09.533Z,79.14
2017-10-23T19:06:50.580Z,79.11
2017-10-23T19:09:26.320Z,79.11
2017-10-23T19:12:00.989Z,79.47
2017-10-23T19:14:31.618Z,79.03
2017-10-23T19:17:09.950Z,79.19
2017-10-23T19:19:44.701Z,79.17
2017-10-23T19:22:11.482Z,79.06
2017-10-23T19:24:38.269Z,79.35
2017-10-23T19:27:27.645Z,79.27
2017-10-23T19:30:02.361Z,79.42
2017-10-23T19:32:38.244Z,79.45
2017-10-23T19:35:15.409Z,79.06
2017-10-23T19:37:50.405Z,79.48
2017-10-23T19:40:25.597Z,79.35
2017-10-23T19:43:06.440Z,79.46
2017-10-23T19:45:40.963Z,79.58
2017-10-23T19:48:21.651Z,79.15
2017-10-23T19:50:59.034Z,79.11
2017-10-23T19:53:40.628Z,79.28
2017-10-23T19:56:24.425Z,79.52
2017-10-23T19:59:05.469Z,79.98
2017-10-23T20:01:42.605Z,80.02
2017-10-23T20:04:23.364Z,80.11
2017-10-23T20:07:03.733Z,80.41
2017-10-23T20:09:40.912Z,80.44
2017-10-23T20:12:16.283Z,80.50
2017-10-23T20:14:57.173Z,80.70
2017-10-23T20:17:39.092Z,80.50
2017-10-23T20:20:14.675Z,80.48
2017-10-23T20:22:51.326Z,80.11
2017-10-23T20:25:26.595Z,80.23
2017-10-23T20:28:01.189Z,80.35
2017-10-23T20:30:37.974Z,80.57
2017-10-23T20:33:18.526Z,80.73
2017-10-23T20:35:53.429Z,81.63
2017-10-23T20:38:34.605Z,81.85
2017-10-23T20:41:10.977Z,81.54
2017-10-23T20:43:45.703Z,81.47
2017-10-23T20:46:29.512Z,81.51
2017-10-23T20:49:10.721Z,81.69
2017-10-23T20:51:48.944Z,81.72
2017-10-23T20:54:25.552Z,81.87
2017-10-23T20:57:03.821Z,81.52
2017-10-23T20:59:40.718Z,81.37
2017-10-23T21:02:23.698Z,81.45
2017-10-23T21:04:59.664Z,81.84
2017-10-23T21:07:37.005Z,81.84
2017-10-23T21:10:20.377Z,81.76
2017-10-23T21:12:56.596Z,81.65
2017-10-23T21:15:41.451Z,81.93
2017-10-23T21:18:28.105Z,82.45
2017-10-23T21:24:02.136Z,82.91
2017-10-23T21:26:37.301Z,83.09
2017-10-23T21:29:28.894Z,83.15
2017-10-23T21:32:19.688Z,83.07
2017-10-23T21:35:04.788Z,83.16
2017-10-23T21:37:40.499Z,82.92
2017-10-23T21:40:18.020Z,82.89
2017-10-23T21:43:01.625Z,82.97
2017-10-23T21:45:44.814Z,83.09
2017-10-23T21:54:03.092Z,82.67
2017-10-23T21:56:48.139Z,82.86
2017-10-23T21:59:22.902Z,82.67
2017-10-23T22:02:05.123Z,82.49
2017-10-23T22:04:39.781Z,82.31
2017-10-23T22:10:25.782Z,82.43
2017-10-23T22:13:05.779Z,82.75
2017-10-23T22:15:48.173Z,82.76
2017-10-23T22:18:31.807Z,82.75
2017-10-23T22:24:00.201Z,83.41
2017-10-23T22:26:37.482Z,83.26
2017-10-23T22:29:19.617Z,83.68
2017-10-23T22:32:00.559Z,84.00
2017-10-23T22:34:44.161Z,84.09
2017-10-23T22:37:19.998Z,84.22
2017-10-23T22:39:58.547Z,84.36
2017-10-23T22:42:39.036Z,84.62
2017-10-23T22:45:13.851Z,84.55
2017-10-23T22:47:56.085Z,84.67
2017-10-23T22:50:36.624Z,84.73
2017-10-23T22:53:16.510Z,84.52
2017-10-23T22:55:56.794Z,84.64
2017-10-23T22:58:34.115Z,84.60
2017-10-23T23:01:16.625Z,84.82
2017-10-23T23:03:51.610Z,85.00
2017-10-23T23:06:28.751Z,85.32
2017-10-23T23:09:04.041Z,85.31
2017-10-23T23:11:40.575Z,85.16
2017-10-23T23:14:15.198Z,84.69
2017-10-23T23:16:50.775Z,84.43
2017-10-23T23:19:26.310Z,84.90
2017-10-23T23:21:53.038Z,84.94
2017-10-23T23:24:27.738Z,85.19
2017-10-23T23:27:05.313Z,85.37
2017-10-23T23:29:39.944Z,85.01
2017-10-23T23:32:15.012Z,85.03
2017-10-23T23:34:51.767Z,85.00
2017-10-23T23:37:31.258Z,85.55
2017-10-23T23:40:11.053Z,86.08
2017-10-23T23:45:38.546Z,86.18
2017-10-23T23:48:14.893Z,86.64
2017-10-23T23:50:55.352Z,86.48
2017-10-23T23:53:37.143Z,86.95
2017-10-23T23:56:11.897Z,87.19
2017-10-23T23:58:51.673Z,87.29
